| time (UTC) | temp C | wind direction | speed KPH | gust KPH | rain 1hr cm | rain 24hr cm | rain mn cm | humidity % | barometer mb |
| 20260504211008 | 25 | 274 | 8.0 | 14.5 | 0.00 | 0.00 | 0.00 | 33 | 1014.1 |
| 20260504210512 | 25 | 259 | 8.0 | 20.9 | 0.00 | 0.00 | 0.00 | 31 | 1014.1 |
| 20260504210029 | 25 | 7 | 8.0 | 20.9 | 0.00 | 0.00 | 0.00 | 33 | 1014.1 |
| 20260504205504 | 25 | 289 | 8.0 | 19.3 | 0.00 | 0.00 | 0.00 | 32 | 1014.2 |
| 20260504205004 | 25 | 249 | 6.4 | 19.3 | 0.00 | 0.00 | 0.00 | 33 | 1014.2 |
| 20260504204539 | 25 | 227 | 8.0 | 19.3 | 0.00 | 0.00 | 0.00 | 32 | 1014.2 |
| 20260504204006 | 25 | 194 | 9.7 | 17.7 | 0.00 | 0.00 | 0.00 | 32 | 1014.3 |
| 20260504203507 | 25 | 234 | 6.4 | 20.9 | 0.00 | 0.00 | 0.00 | 32 | 1014.4 |
| 20260504203020 | 25 | 269 | 12.9 | 20.9 | 0.00 | 0.00 | 0.00 | 30 | 1014.5 |
| 20260504202507 | 25 | 285 | 4.8 | 19.3 | 0.00 | 0.00 | 0.00 | 32 | 1014.6 |
| 20260504202007 | 25 | 173 | 8.0 | 16.1 | 0.00 | 0.00 | 0.00 | 32 | 1014.6 |
| 20260504201526 | 25 | 247 | 9.7 | 16.1 | 0.00 | 0.00 | 0.00 | 32 | 1014.7 |
| 20260504201009 | 25 | 248 | 4.8 | 17.7 | 0.00 | 0.00 | 0.00 | 32 | 1014.7 |
| 20260504200507 | 25 | 234 | 11.3 | 17.7 | 0.00 | 0.00 | 0.00 | 31 | 1014.9 |
| 20260504200028 | 25 | 232 | 1.6 | 19.3 | 0.00 | 0.00 | 0.00 | 33 | 1014.9 |
| 20260504195508 | 25 | 135 | 6.4 | 19.3 | 0.00 | 0.00 | 0.00 | 32 | 1015.0 |
| 20260504195007 | 25 | 260 | 11.3 | 20.9 | 0.00 | 0.00 | 0.00 | 33 | 1015.0 |
| 20260504194518 | 25 | 262 | 4.8 | 20.9 | 0.00 | 0.00 | 0.00 | 33 | 1015.0 |
| 20260504194005 | 25 | 270 | 6.4 | 16.1 | 0.00 | 0.00 | 0.00 | 32 | 1015.1 |
| 20260504193505 | 25 | 278 | 8.0 | 12.9 | 0.00 | 0.00 | 0.00 | 34 | 1015.2 |
| 20260504193021 | 25 | 187 | 4.8 | 12.9 | 0.00 | 0.00 | 0.00 | 33 | 1015.2 |
| 20260504192506 | 25 | 179 | 8.0 | 12.9 | 0.00 | 0.00 | 0.00 | 34 | 1015.3 |
| 20260504192007 | 24 | 194 | 4.8 | 11.3 | 0.00 | 0.00 | 0.00 | 36 | 1015.3 |
| 20260504191524 | 25 | 215 | 4.8 | 16.1 | 0.00 | 0.00 | 0.00 | 33 | 1015.4 |
| 20260504191007 | 25 | 262 | 6.4 | 16.1 | 0.00 | 0.00 | 0.00 | 34 | 1015.5 |
| 20260504190507 | 25 | 296 | 9.7 | 16.1 | 0.00 | 0.00 | 0.00 | 33 | 1015.5 |
| 20260504190035 | 24 | 280 | 6.4 | 12.9 | 0.00 | 0.00 | 0.00 | 34 | 1015.7 |
| 20260504185511 | 24 | 187 | 3.2 | 12.9 | 0.00 | 0.00 | 0.00 | 35 | 1015.7 |
| 20260504185009 | 23 | 230 | 6.4 | 12.9 | 0.00 | 0.00 | 0.00 | 36 | 1015.7 |
| 20260504184521 | 23 | 216 | 3.2 | 17.7 | 0.00 | 0.00 | 0.00 | 34 | 1015.9 |
| 20260504184004 | 23 | 240 | 12.9 | 17.7 | 0.00 | 0.00 | 0.00 | 34 | 1016.0 |
| 20260504183505 | 23 | 257 | 8.0 | 14.5 | 0.00 | 0.00 | 0.00 | 35 | 1015.9 |
| 20260504183014 | 23 | 206 | 8.0 | 22.5 | 0.00 | 0.00 | 0.00 | 38 | 1016.0 |
| 20260504182505 | 23 | 244 | 3.2 | 22.5 | 0.00 | 0.00 | 0.00 | 35 | 1016.1 |
| 20260504182004 | 23 | 252 | 11.3 | 17.7 | 0.00 | 0.00 | 0.00 | 36 | 1016.1 |
| 20260504181503 | 23 | 207 | 3.2 | 12.9 | 0.00 | 0.00 | 0.00 | 36 | 1016.2 |
| 20260504181004 | 23 | 228 | 3.2 | 12.9 | 0.00 | 0.00 | 0.00 | 35 | 1016.2 |
| 20260504180504 | 23 | 245 | 4.8 | 6.4 | 0.00 | 0.00 | 0.00 | 36 | 1016.2 |
| 20260504180007 | 23 | 36 | 1.6 | 11.3 | 0.00 | 0.00 | 0.00 | 36 | 1016.2 |
| 20260504175503 | 23 | 214 | 6.4 | 12.9 | 0.00 | 0.00 | 0.00 | 35 | 1016.3 |
| 20260504175004 | 23 | 274 | 4.8 | 12.9 | 0.00 | 0.00 | 0.00 | 35 | 1016.2 |
| 20260504174510 | 23 | 172 | 3.2 | 9.7 | 0.00 | 0.00 | 0.00 | 35 | 1016.2 |
| 20260504174003 | 23 | 227 | 3.2 | 12.9 | 0.00 | 0.00 | 0.00 | 35 | 1016.2 |
| 20260504173506 | 22 | 223 | 3.2 | 12.9 | 0.00 | 0.00 | 0.00 | 36 | 1016.3 |
| 20260504173014 | 23 | 275 | 9.7 | 12.9 | 0.00 | 0.00 | 0.00 | 35 | 1016.3 |
| 20260504172505 | 23 | 294 | 4.8 | 9.7 | 0.00 | 0.00 | 0.00 | 36 | 1016.3 |
| 20260504172006 | 22 | 106 | 3.2 | 9.7 | 0.00 | 0.00 | 0.00 | 35 | 1016.4 |
| 20260504171516 | 22 | 280 | 1.6 | 12.9 | 0.00 | 0.00 | 0.00 | 36 | 1016.5 |
| 20260504171004 | 22 | 300 | 4.8 | 12.9 | 0.00 | 0.00 | 0.00 | 36 | 1016.5 |
| 20260504170503 | 22 | 142 | 4.8 | 9.7 | 0.00 | 0.00 | 0.00 | 36 | 1016.7 |
| 20260504151007 | 19 | 355 | 1.6 | 11.3 | 0.00 | 0.00 | 0.00 | 41 | 1018.7 |
| 20260504150510 | 18 | 6 | 4.8 | 9.7 | 0.00 | 0.00 | 0.00 | 44 | 1018.6 |
| 20260504141007 | 16 | 124 | 0.0 | 3.2 | 0.00 | 0.00 | 0.00 | 55 | 1018.1 |
| 20260504140509 | 16 | 178 | 0.0 | 3.2 | 0.00 | 0.00 | 0.00 | 57 | 1018.2 |
| 20260504130507 | 11 | 177 | 0.0 | 3.2 | 0.00 | 0.00 | 0.00 | 69 | 1018.2 |
| 20260504110505 | 5 | 319 | 0.0 | 3.2 | 0.00 | 0.00 | 0.00 | 87 | 1017.7 |
| 20260504100508 | 6 | 353 | 0.0 | 3.2 | 0.00 | 0.00 | 0.00 | 85 | 1017.5 |
| 20260504082003 | 7 | 339 | 0.0 | 3.2 | 0.00 | 0.00 | 0.00 | 83 | 1017.4 |
| 20260504081504 | 7 | 339 | 0.0 | 3.2 | 0.00 | 0.00 | 0.00 | 83 | 1017.4 |
| 20260504081002 | 7 | 31 | 0.0 | 3.2 | 0.00 | 0.00 | 0.00 | 82 | 1017.4 |
| 20260504080503 | 7 | 31 | 0.0 | 3.2 | 0.00 | 0.00 | 0.00 | 82 | 1017.4 |
| 20260504050508 | 10 | 50 | 0.0 | 3.2 | 0.00 | 0.00 | 0.00 | 69 | 1017.7 |
| 20260504050023 | 10 | 50 | 0.0 | 3.2 | 0.00 | 0.00 | 0.00 | 69 | 1017.7 |
| 20260504045507 | 10 | 50 | 0.0 | 3.2 | 0.00 | 0.00 | 0.00 | 69 | 1017.6 |
| 20260504045009 | 10 | 44 | 1.6 | 3.2 | 0.00 | 0.00 | 0.00 | 69 | 1017.6 |
| 20260504044505 | 10 | 44 | 1.6 | 3.2 | 0.00 | 0.00 | 0.00 | 68 | 1017.6 |
| 20260504044003 | 11 | 31 | 1.6 | 3.2 | 0.00 | 0.00 | 0.00 | 68 | 1017.5 |
| 20260504043503 | 11 | 233 | 0.0 | 0.0 | 0.00 | 0.00 | 0.00 | 67 | 1017.3 |
| 20260504043015 | 11 | 233 | 0.0 | 3.2 | 0.00 | 0.00 | 0.00 | 66 | 1017.2 |
| 20260504042504 | 11 | 233 | 0.0 | 3.2 | 0.00 | 0.00 | 0.00 | 66 | 1017.2 |
| 20260504042005 | 11 | 233 | 0.0 | 3.2 | 0.00 | 0.00 | 0.00 | 66 | 1017.3 |
| 20260504041516 | 11 | 233 | 0.0 | 3.2 | 0.00 | 0.00 | 0.00 | 65 | 1017.4 |
| 20260504041006 | 11 | 233 | 0.0 | 3.2 | 0.00 | 0.00 | 0.00 | 64 | 1017.3 |
| 20260504040508 | 11 | 259 | 0.0 | 3.2 | 0.00 | 0.00 | 0.00 | 63 | 1017.4 |
| 20260504040024 | 12 | 228 | 0.0 | 3.2 | 0.00 | 0.00 | 0.00 | 62 | 1017.4 |
| 20260504035507 | 12 | 219 | 0.0 | 4.8 | 0.00 | 0.00 | 0.00 | 62 | 1017.4 |
| 20260504035009 | 11 | 280 | 1.6 | 4.8 | 0.00 | 0.00 | 0.00 | 61 | 1017.3 |
| 20260504034526 | 12 | 223 | 0.0 | 3.2 | 0.00 | 0.00 | 0.00 | 62 | 1017.3 |
| 20260504034009 | 12 | 221 | 0.0 | 3.2 | 0.00 | 0.00 | 0.00 | 62 | 1017.4 |
| 20260504033508 | 12 | 221 | 0.0 | 3.2 | 0.00 | 0.00 | 0.00 | 61 | 1017.5 |
| 20260504033008 | 12 | 202 | 0.0 | 3.2 | 0.00 | 0.00 | 0.00 | 60 | 1017.5 |
| 20260504032505 | 12 | 247 | 0.0 | 3.2 | 0.00 | 0.00 | 0.00 | 60 | 1017.5 |
| 20260504032008 | 12 | 247 | 0.0 | 3.2 | 0.00 | 0.00 | 0.00 | 60 | 1017.5 |
| 20260504031516 | 13 | 175 | 0.0 | 3.2 | 0.00 | 0.00 | 0.00 | 56 | 1017.5 |
| 20260504031005 | 13 | 168 | 1.6 | 3.2 | 0.00 | 0.00 | 0.00 | 56 | 1017.4 |
| 20260504030503 | 13 | 166 | 0.0 | 3.2 | 0.00 | 0.00 | 0.00 | 56 | 1017.4 |
| 20260504030025 | 13 | 172 | 0.0 | 3.2 | 0.00 | 0.00 | 0.00 | 57 | 1017.3 |
| 20260504025508 | 13 | 194 | 0.0 | 3.2 | 0.00 | 0.00 | 0.00 | 57 | 1017.3 |
| 20260504025006 | 13 | 225 | 0.0 | 3.2 | 0.00 | 0.00 | 0.00 | 55 | 1017.4 |
| 20260504024522 | 13 | 186 | 0.0 | 3.2 | 0.00 | 0.00 | 0.00 | 52 | 1017.3 |
| 20260504024008 | 14 | 185 | 1.6 | 3.2 | 0.00 | 0.00 | 0.00 | 50 | 1017.2 |
| 20260504023508 | 14 | 172 | 1.6 | 3.2 | 0.00 | 0.00 | 0.00 | 50 | 1017.3 |
| 20260504023029 | 14 | 166 | 1.6 | 3.2 | 0.00 | 0.00 | 0.00 | 50 | 1017.2 |
| 20260504022508 | 14 | 183 | 0.0 | 3.2 | 0.00 | 0.00 | 0.00 | 51 | 1017.2 |
| 20260504022003 | 14 | 235 | 1.6 | 3.2 | 0.00 | 0.00 | 0.00 | 51 | 1017.1 |
| 20260504021511 | 14 | 226 | 0.0 | 3.2 | 0.00 | 0.00 | 0.00 | 51 | 1017.1 |
| 20260504021004 | 14 | 220 | 0.0 | 3.2 | 0.00 | 0.00 | 0.00 | 50 | 1017.0 |
| 20260504020505 | 14 | 185 | 0.0 | 4.8 | 0.00 | 0.00 | 0.00 | 50 | 1016.8 |
| 20260504020020 | 15 | 172 | 1.6 | 4.8 | 0.00 | 0.00 | 0.00 | 47 | 1016.8 |
| 20260504015504 | 15 | 159 | 1.6 | 4.8 | 0.00 | 0.00 | 0.00 | 46 | 1016.7 |
| 20260504015009 | 15 | 170 | 1.6 | 4.8 | 0.00 | 0.00 | 0.00 | 47 | 1016.6 |
| 20260504014532 | 15 | 191 | 1.6 | 4.8 | 0.00 | 0.00 | 0.00 | 46 | 1016.6 |
| 20260504014007 | 15 | 138 | 1.6 | 3.2 | 0.00 | 0.00 | 0.00 | 46 | 1016.6 |
| 20260504013507 | 15 | 202 | 1.6 | 4.8 | 0.00 | 0.00 | 0.00 | 48 | 1016.5 |
| 20260504013034 | 15 | 237 | 1.6 | 4.8 | 0.00 | 0.00 | 0.00 | 45 | 1016.5 |
| 20260504012508 | 15 | 249 | 1.6 | 4.8 | 0.00 | 0.00 | 0.00 | 44 | 1016.5 |
| 20260504012009 | 15 | 212 | 1.6 | 3.2 | 0.00 | 0.00 | 0.00 | 44 | 1016.5 |
| 20260504011528 | 15 | 182 | 0.0 | 3.2 | 0.00 | 0.00 | 0.00 | 43 | 1016.5 |
| 20260504011010 | 16 | 199 | 1.6 | 4.8 | 0.00 | 0.00 | 0.00 | 42 | 1016.4 |
| 20260504010504 | 16 | 194 | 0.0 | 4.8 | 0.00 | 0.00 | 0.00 | 41 | 1016.3 |
| 20260504010019 | 16 | 186 | 1.6 | 4.8 | 0.00 | 0.00 | 0.00 | 41 | 1016.2 |
| 20260504005507 | 16 | 162 | 1.6 | 4.8 | 0.00 | 0.00 | 0.00 | 40 | 1016.2 |
| 20260504005006 | 16 | 151 | 1.6 | 4.8 | 0.00 | 0.00 | 0.00 | 40 | 1016.1 |
| 20260504004518 | 16 | 170 | 3.2 | 3.2 | 0.00 | 0.00 | 0.00 | 39 | 1016.1 |
| 20260504004008 | 17 | 143 | 1.6 | 6.4 | 0.00 | 0.00 | 0.00 | 38 | 1016.1 |
| 20260504003508 | 17 | 163 | 1.6 | 6.4 | 0.00 | 0.00 | 0.00 | 37 | 1016.0 |
| 20260504003025 | 17 | 227 | 1.6 | 6.4 | 0.00 | 0.00 | 0.00 | 37 | 1016.1 |
| 20260504002510 | 17 | 251 | 1.6 | 6.4 | 0.00 | 0.00 | 0.00 | 36 | 1016.0 |
| 20260504002007 | 17 | 237 | 1.6 | 8.0 | 0.00 | 0.00 | 0.00 | 36 | 1016.1 |
| 20260504001524 | 17 | 263 | 3.2 | 8.0 | 0.00 | 0.00 | 0.00 | 35 | 1016.0 |
| 20260504001008 | 18 | 229 | 1.6 | 6.4 | 0.00 | 0.00 | 0.00 | 34 | 1016.0 |
| 20260504000510 | 18 | 226 | 1.6 | 6.4 | 0.00 | 0.00 | 0.00 | 33 | 1015.9 |
| 20260504000010 | 18 | 261 | 3.2 | 4.8 | 0.00 | 0.00 | 0.00 | 34 | 1015.9 |
| 20260503235503 | 18 | 239 | 1.6 | 4.8 | 0.00 | 0.00 | 0.00 | 32 | 1015.9 |
| 20260503235004 | 18 | 235 | 1.6 | 6.4 | 0.00 | 0.00 | 0.00 | 33 | 1015.9 |
| 20260503234516 | 18 | 258 | 3.2 | 6.4 | 0.00 | 0.00 | 0.00 | 32 | 1015.9 |
| 20260503234006 | 18 | 242 | 3.2 | 9.7 | 0.00 | 0.00 | 0.00 | 31 | 1015.9 |
| 20260503233503 | 18 | 255 | 3.2 | 14.5 | 0.00 | 0.00 | 0.00 | 32 | 1015.9 |
| 20260503233009 | 18 | 244 | 4.8 | 14.5 | 0.00 | 0.00 | 0.00 | 31 | 1015.9 |
| 20260503232502 | 19 | 256 | 4.8 | 16.1 | 0.00 | 0.00 | 0.00 | 31 | 1015.8 |
| 20260503232004 | 19 | 232 | 6.4 | 16.1 | 0.00 | 0.00 | 0.00 | 30 | 1015.8 |
| 20260503231506 | 19 | 267 | 4.8 | 12.9 | 0.00 | 0.00 | 0.00 | 30 | 1015.8 |
| 20260503231002 | 19 | 266 | 4.8 | 14.5 | 0.00 | 0.00 | 0.00 | 29 | 1015.9 |
| 20260503230505 | 19 | 228 | 9.7 | 14.5 | 0.00 | 0.00 | 0.00 | 29 | 1015.9 |
| 20260503230008 | 20 | 254 | 8.0 | 12.9 | 0.00 | 0.00 | 0.00 | 30 | 1015.9 |
| 20260503225503 | 20 | 195 | 3.2 | 9.7 | 0.00 | 0.00 | 0.00 | 32 | 1016.0 |
| 20260503225003 | 20 | 241 | 4.8 | 11.3 | 0.00 | 0.00 | 0.00 | 32 | 1016.0 |
| 20260503224513 | 20 | 215 | 6.4 | 11.3 | 0.00 | 0.00 | 0.00 | 30 | 1015.9 |
| 20260503224006 | 20 | 268 | 6.4 | 11.3 | 0.00 | 0.00 | 0.00 | 30 | 1015.9 |
| 20260503223504 | 20 | 228 | 1.6 | 9.7 | 0.00 | 0.00 | 0.00 | 32 | 1016.0 |
| 20260503223017 | 20 | 272 | 4.8 | 11.3 | 0.00 | 0.00 | 0.00 | 31 | 1016.0 |
| 20260503222502 | 20 | 209 | 6.4 | 16.1 | 0.00 | 0.00 | 0.00 | 31 | 1016.0 |
| 20260503222002 | 20 | 266 | 6.4 | 16.1 | 0.00 | 0.00 | 0.00 | 31 | 1016.0 |
| 20260503221505 | 20 | 197 | 6.4 | 11.3 | 0.00 | 0.00 | 0.00 | 32 | 1016.1 |
| 20260503221005 | 20 | 261 | 8.0 | 11.3 | 0.00 | 0.00 | 0.00 | 32 | 1016.1 |
| 20260503220503 | 20 | 262 | 3.2 | 12.9 | 0.00 | 0.00 | 0.00 | 31 | 1016.1 |
| 20260503220007 | 20 | 220 | 3.2 | 12.9 | 0.00 | 0.00 | 0.00 | 31 | 1016.0 |
| 20260503215503 | 20 | 262 | 8.0 | 14.5 | 0.00 | 0.00 | 0.00 | 31 | 1016.1 |
| 20260503215006 | 20 | 263 | 3.2 | 14.5 | 0.00 | 0.00 | 0.00 | 32 | 1016.2 |
| 20260503214511 | 20 | 281 | 6.4 | 16.1 | 0.00 | 0.00 | 0.00 | 31 | 1016.4 |
| 20260503214005 | 19 | 240 | 8.0 | 16.1 | 0.00 | 0.00 | 0.00 | 31 | 1016.4 |
| 20260503213505 | 19 | 297 | 9.7 | 16.1 | 0.00 | 0.00 | 0.00 | 32 | 1016.5 |
| 20260503213016 | 19 | 263 | 9.7 | 16.1 | 0.00 | 0.00 | 0.00 | 32 | 1016.5 |
| 20260503212508 | 19 | 318 | 6.4 | 17.7 | 0.00 | 0.00 | 0.00 | 31 | 1016.6 |
| 20260503212007 | 19 | 284 | 8.0 | 17.7 | 0.00 | 0.00 | 0.00 | 31 | 1016.6 |
| 20260503211503 | 19 | 237 | 3.2 | 12.9 | 0.00 | 0.00 | 0.00 | 32 | 1016.7 |